Time;durP1;ratioP1;P1;durP2;ratioP2;P2;SDS_P1;SDS_P2;PMS_P1;PMS_P2;Temp;Humidity;BMP_temperature;BMP_pressure;BME280_temperature;BME280_humidity;BME280_pressure;Samples;Min_cycle;Max_cycle;Signal;HPM_P1;HPM_P2
2021/09/21 00:01:40;;;;;;;13.57;8.65;;;;;;;19.35;67.86;100423.44;5047247;28;20523;-75
2021/09/21 00:04:06;;;;;;;15.70;8.30;;;;;;;19.45;67.58;100433.88;5047393;28;20523;-73
2021/09/21 00:06:31;;;;;;;14.77;7.93;;;;;;;19.36;67.10;100424.28;5025535;28;20111;-72
2021/09/21 00:08:57;;;;;;;12.88;8.23;;;;;;;19.29;66.94;100433.91;5016137;28;20037;-76
2021/09/21 00:11:22;;;;;;;13.75;8.13;;;;;;;19.41;66.11;100443.47;5015048;28;20030;-71
2021/09/21 00:13:48;;;;;;;10.70;8.52;;;;;;;19.30;65.72;100447.84;5014310;28;20022;-74
2021/09/21 00:16:13;;;;;;;14.10;8.85;;;;;;;18.97;67.05;100460.03;5016983;28;20022;-71
2021/09/21 00:18:39;;;;;;;16.73;8.35;;;;;;;18.57;69.06;100453.75;5018618;28;20382;-72
2021/09/21 00:21:04;;;;;;;22.23;8.73;;;;;;;18.69;68.93;100426.78;5015363;28;20044;-71
2021/09/21 00:23:30;;;;;;;16.38;8.18;;;;;;;18.87;68.60;100461.69;5016541;28;20112;-73
2021/09/21 00:25:56;;;;;;;15.23;9.02;;;;;;;18.82;69.56;100458.22;5014670;28;20030;-73
2021/09/21 00:28:22;;;;;;;12.82;9.25;;;;;;;18.92;69.28;100463.47;5014880;28;20026;-73
2021/09/21 00:30:50;;;;;;;14.15;9.05;;;;;;;18.66;69.77;100457.28;5020857;28;20025;-72
2021/09/21 00:33:18;;;;;;;14.35;8.75;;;;;;;18.55;69.82;100431.94;5034252;28;20040;-74
2021/09/21 00:35:45;;;;;;;15.07;8.77;;;;;;;18.68;70.08;100452.91;5034255;28;20488;-74
2021/09/21 00:38:12;;;;;;;16.67;8.82;;;;;;;18.68;69.71;100434.59;5034386;28;20036;-73
2021/09/21 00:40:38;;;;;;;12.90;9.73;;;;;;;18.96;69.20;100473.97;5034404;28;20057;-74
2021/09/21 00:43:04;;;;;;;14.48;8.43;;;;;;;18.69;69.48;100423.28;5034173;28;20470;-76
2021/09/21 00:45:32;;;;;;;12.63;8.93;;;;;;;18.68;69.54;100430.25;5034165;28;20032;-73
2021/09/21 00:47:58;;;;;;;13.90;9.13;;;;;;;18.97;69.31;100460.03;5034104;28;20028;-75
2021/09/21 00:50:26;;;;;;;15.02;9.52;;;;;;;19.02;69.13;100466.13;5034318;28;20029;-74
2021/09/21 00:52:53;;;;;;;10.10;7.55;;;;;;;18.63;69.05;100471.22;5034191;28;20484;-73
2021/09/21 00:55:19;;;;;;;14.07;7.85;;;;;;;18.05;70.67;100425.63;5034120;28;20018;-77
2021/09/21 00:57:45;;;;;;;12.15;8.48;;;;;;;18.33;70.38;100472.84;5034214;28;20040;-72
2021/09/21 01:00:13;;;;;;;11.05;7.43;;;;;;;18.43;69.87;100482.44;5033844;28;20060;-76
2021/09/21 01:02:39;;;;;;;8.48;6.25;;;;;;;17.78;69.66;100410.63;5031730;28;20478;-73
2021/09/21 01:05:05;;;;;;;12.93;6.95;;;;;;;17.99;70.37;100469.13;5034055;28;20033;-73
2021/09/21 01:07:31;;;;;;;8.75;6.90;;;;;;;17.91;70.58;100462.09;5033863;28;20033;-73
2021/09/21 01:10:07;;;;;;;9.75;6.47;;;;;;;18.11;70.02;100474.44;5033894;28;20099;-80
2021/09/21 01:12:33;;;;;;;13.48;6.47;;;;;;;18.26;69.57;100468.44;5033871;28;20047;-73
2021/09/21 01:14:59;;;;;;;10.43;5.88;;;;;;;18.35;69.32;100478.06;5031100;28;20523;-72
2021/09/21 01:17:25;;;;;;;10.27;6.70;;;;;;;18.26;69.29;100471.91;5030297;28;20042;-72
2021/09/21 01:19:50;;;;;;;10.65;7.00;;;;;;;18.34;69.06;100464.09;5031473;28;20033;-73
2021/09/21 01:22:16;;;;;;;8.45;6.18;;;;;;;18.55;69.01;100486.84;5031322;28;20033;-72
2021/09/21 01:24:41;;;;;;;9.35;6.22;;;;;;;18.67;68.62;100483.44;5031273;28;20443;-72
2021/09/21 01:27:07;;;;;;;7.80;5.97;;;;;;;18.76;68.02;100488.69;5031362;28;20067;-73
2021/09/21 01:29:33;;;;;;;6.68;5.80;;;;;;;18.39;68.41;100448.44;5031216;28;20037;-74
2021/09/21 01:31:58;;;;;;;7.10;5.72;;;;;;;18.24;68.75;100450.13;5030552;28;20033;-73
2021/09/21 01:34:25;;;;;;;8.55;6.65;;;;;;;18.57;68.46;100482.50;5031063;28;20111;-72
2021/09/21 01:36:51;;;;;;;9.43;6.25;;;;;;;18.77;67.94;100492.19;5031159;28;20424;-73
2021/09/21 01:39:16;;;;;;;6.82;5.90;;;;;;;19.02;67.49;100495.78;5031049;28;20048;-73
2021/09/21 01:41:42;;;;;;;7.05;5.93;;;;;;;19.15;66.88;100498.41;5030985;28;20112;-73
2021/09/21 01:44:08;;;;;;;7.78;5.75;;;;;;;19.24;65.87;100499.31;5030821;28;20499;-73
2021/09/21 01:46:34;;;;;;;10.43;5.97;;;;;;;19.26;65.46;100482.75;5032483;28;20124;-75
2021/09/21 01:48:59;;;;;;;8.57;6.18;;;;;;;19.18;65.40;100462.66;5033417;28;20075;-73
2021/09/21 01:51:37;;;;;;;9.32;6.60;;;;;;;19.42;65.36;100496.72;5033047;28;20465;-73
2021/09/21 01:54:15;;;;;;;9.55;6.68;;;;;;;19.20;65.69;100504.53;5032999;28;20029;-73
2021/09/21 01:59:26;;;;;;;7.65;6.00;;;;;;;19.16;66.11;100515.88;5032889;28;20123;-72
2021/09/21 02:01:51;;;;;;;9.35;6.40;;;;;;;19.16;65.93;100508.88;5032619;28;20036;-73
2021/09/21 02:04:17;;;;;;;8.85;6.57;;;;;;;19.15;66.04;100517.63;5032723;28;20033;-73
2021/09/21 02:06:43;;;;;;;7.18;6.10;;;;;;;19.11;66.12;100513.25;5032631;28;20048;-73
2021/09/21 02:09:11;;;;;;;9.90;6.63;;;;;;;19.17;66.12;100502.78;5032496;28;20022;-73
2021/09/21 02:11:37;;;;;;;8.13;6.75;;;;;;;19.28;65.42;100508.06;5032584;28;20026;-73
2021/09/21 02:14:04;;;;;;;9.02;7.18;;;;;;;19.30;65.41;100519.41;5032769;28;20033;-72
2021/09/21 02:16:31;;;;;;;9.27;7.25;;;;;;;19.15;65.75;100521.97;5032632;28;20373;-73
2021/09/21 02:18:58;;;;;;;10.27;7.65;;;;;;;18.97;66.38;100510.59;5032622;28;20032;-73
2021/09/21 02:21:24;;;;;;;10.63;8.25;;;;;;;18.71;66.47;100492.16;5032476;28;20369;-73
2021/09/21 02:23:50;;;;;;;9.75;8.10;;;;;;;18.81;67.04;100527.94;5032259;28;20037;-72
2021/09/21 02:26:15;;;;;;;9.75;7.72;;;;;;;18.61;67.63;100527.00;5032715;28;20029;-73
2021/09/21 02:28:41;;;;;;;8.00;7.20;;;;;;;18.53;68.16;100530.44;5032051;28;20082;-72
2021/09/21 02:31:06;;;;;;;8.35;7.53;;;;;;;18.33;68.37;100534.66;5032291;28;20025;-73
2021/09/21 02:33:32;;;;;;;9.43;8.32;;;;;;;17.99;69.11;100524.00;5032305;28;20030;-72
2021/09/21 02:35:57;;;;;;;11.13;8.00;;;;;;;18.19;69.37;100540.66;5032315;28;20484;-73
2021/09/21 02:38:23;;;;;;;11.05;8.23;;;;;;;18.11;69.19;100519.72;5032098;28;20057;-78
2021/09/21 02:40:49;;;;;;;9.63;7.70;;;;;;;18.27;69.23;100536.38;5032091;28;20041;-73
2021/09/21 02:43:14;;;;;;;9.82;8.57;;;;;;;18.23;69.73;100538.94;5032146;28;20036;-73
2021/09/21 02:45:40;;;;;;;12.35;8.05;;;;;;;18.18;69.02;100525.00;5032204;28;20044;-73
2021/09/21 02:48:05;;;;;;;13.00;8.57;;;;;;;18.24;69.11;100554.66;5032025;28;20107;-76
2021/09/21 02:50:31;;;;;;;12.57;8.50;;;;;;;18.12;69.29;100562.41;5047486;28;20021;-72
2021/09/21 02:52:57;;;;;;;9.05;8.07;;;;;;;18.17;68.83;100558.09;5031795;28;20025;-73
2021/09/21 02:55:22;;;;;;;15.05;8.20;;;;;;;18.33;68.85;100558.19;5031991;28;20099;-74
2021/09/21 02:57:48;;;;;;;12.10;7.70;;;;;;;18.30;68.50;100532.03;5032304;28;20044;-73
2021/09/21 03:00:19;;;;;;;12.70;8.52;;;;;;;18.59;67.76;100566.19;5031554;28;20053;-73
2021/09/21 03:02:45;;;;;;;10.80;8.23;;;;;;;18.57;67.64;100568.78;5031810;28;20435;-71
2021/09/21 03:05:31;;;;;;;9.63;8.40;;;;;;;18.62;67.94;100575.78;5031829;28;20029;-74
2021/09/21 03:08:06;;;;;;;11.75;8.63;;;;;;;18.74;67.06;100584.59;5031889;28;20112;-72
2021/09/21 03:13:46;;;;;;;10.75;7.00;;;;;;;18.30;72.53;100594.78;5029164;28;20087;-73
2021/09/21 03:18:57;;;;;;;16.27;7.38;;;;;;;18.65;70.43;100601.97;5029566;28;20116;-74
2021/09/21 03:21:23;;;;;;;11.63;7.50;;;;;;;18.71;70.16;100599.38;5029290;28;20496;-78
2021/09/21 03:23:49;;;;;;;10.02;6.75;;;;;;;18.48;71.08;100604.47;5029064;28;20037;-73
2021/09/21 03:26:14;;;;;;;9.43;6.65;;;;;;;18.24;71.88;100580.81;5029035;28;20040;-73
2021/09/21 03:28:40;;;;;;;9.88;7.15;;;;;;;18.32;73.29;100603.47;5029373;28;20037;-73
2021/09/21 03:31:06;;;;;;;10.15;6.53;;;;;;;18.36;73.72;100616.59;5029092;28;20053;-73
2021/09/21 03:33:32;;;;;;;12.02;6.55;;;;;;;18.41;73.72;100609.66;5029056;28;20095;-74
2021/09/21 03:35:57;;;;;;;11.48;7.47;;;;;;;18.44;73.70;100624.47;5029228;28;20042;-75
2021/09/21 03:38:22;;;;;;;9.27;6.80;;;;;;;18.24;74.32;100619.09;5029097;28;20747;-73
2021/09/21 03:40:48;;;;;;;9.90;6.93;;;;;;;18.17;74.33;100618.19;5031142;28;20114;-77
2021/09/21 03:43:13;;;;;;;14.13;7.50;;;;;;;17.87;76.02;100616.13;5032558;28;20049;-73
2021/09/21 03:45:40;;;;;;;9.55;6.90;;;;;;;18.05;75.62;100631.16;5033256;28;20041;-73
2021/09/21 03:48:07;;;;;;;11.68;6.93;;;;;;;18.00;75.54;100604.13;5033378;28;20025;-74
2021/09/21 03:50:34;;;;;;;11.93;7.32;;;;;;;18.02;74.79;100604.97;5035317;28;20095;-73
2021/09/21 03:52:59;;;;;;;10.30;7.25;;;;;;;18.23;74.52;100643.47;5035163;28;20036;-72
2021/09/21 03:55:25;;;;;;;9.38;6.90;;;;;;;18.22;73.91;100655.69;5035011;28;20395;-73
2021/09/21 03:57:51;;;;;;;17.70;7.68;;;;;;;18.14;73.27;100633.81;5035182;28;20060;-72
2021/09/21 04:00:17;;;;;;;9.75;7.60;;;;;;;18.30;73.34;100652.25;5034190;28;20053;-74
2021/09/21 04:02:42;;;;;;;13.40;7.53;;;;;;;18.13;72.76;100647.78;5034018;28;20125;-74
2021/09/21 04:05:08;;;;;;;10.60;8.25;;;;;;;18.12;72.71;100664.31;5035039;28;20044;-73
2021/09/21 04:07:33;;;;;;;11.45;7.93;;;;;;;17.83;72.31;100659.66;5034994;28;20053;-73
2021/09/21 04:09:59;;;;;;;13.48;7.93;;;;;;;17.59;74.05;100658.50;5034922;28;20025;-72
2021/09/21 04:12:24;;;;;;;12.10;8.32;;;;;;;17.37;74.25;100652.19;5065163;28;20072;-72
2021/09/21 04:14:50;;;;;;;13.75;9.48;;;;;;;17.17;75.04;100651.94;5034201;28;20412;-73
2021/09/21 04:17:15;;;;;;;13.45;10.18;;;;;;;17.15;75.27;100666.69;5034860;28;20476;-73
2021/09/21 04:19:41;;;;;;;13.63;9.93;;;;;;;17.21;75.03;100674.59;5034756;28;20029;-73
2021/09/21 04:22:07;;;;;;;12.85;9.20;;;;;;;17.28;74.68;100684.28;5030645;28;20412;-70
2021/09/21 04:24:33;;;;;;;11.30;9.73;;;;;;;17.32;74.86;100690.41;5030695;28;20391;-73
2021/09/21 04:27:00;;;;;;;11.15;8.90;;;;;;;17.13;74.65;100657.97;5017464;28;20037;-72
2021/09/21 04:29:25;;;;;;;12.63;9.93;;;;;;;17.30;73.85;100660.78;5046603;28;20602;-73
2021/09/21 04:31:53;;;;;;;12.80;10.05;;;;;;;17.45;74.34;100687.06;5034404;28;20029;-75
2021/09/21 04:34:19;;;;;;;18.33;10.13;;;;;;;17.47;74.19;100694.94;5034218;28;20041;-73
2021/09/21 04:36:44;;;;;;;13.75;10.68;;;;;;;17.47;73.90;100702.78;5034458;28;20026;-74
2021/09/21 04:39:10;;;;;;;15.70;10.60;;;;;;;17.43;72.74;100690.53;5049633;28;20410;-74
2021/09/21 04:41:36;;;;;;;12.75;9.73;;;;;;;17.05;73.21;100698.75;5048838;28;20046;-73
2021/09/21 04:44:01;;;;;;;14.05;10.77;;;;;;;16.81;75.48;100689.69;5034260;28;20480;-77
2021/09/21 04:46:27;;;;;;;16.20;11.07;;;;;;;16.81;75.69;100687.06;5034280;28;20033;-73
2021/09/21 04:48:52;;;;;;;14.82;11.02;;;;;;;16.89;75.55;100701.06;5034257;28;20112;-74
2021/09/21 04:51:18;;;;;;;16.10;11.45;;;;;;;16.98;75.22;100692.53;5034165;28;20108;-73
2021/09/21 04:53:44;;;;;;;18.30;11.10;;;;;;;16.94;75.37;100714.22;5034094;28;20137;-72
2021/09/21 04:56:10;;;;;;;14.88;10.82;;;;;;;16.79;74.98;100704.41;5034069;28;20474;-74
2021/09/21 04:58:35;;;;;;;18.70;11.30;;;;;;;16.78;75.98;100713.06;5030076;28;20036;-73
2021/09/21 05:01:01;;;;;;;13.30;9.95;;;;;;;16.86;74.75;100715.78;5028913;28;20053;-74
2021/09/21 05:03:26;;;;;;;13.13;9.68;;;;;;;16.54;75.36;100692.72;5029511;28;20060;-73
2021/09/21 05:05:52;;;;;;;17.58;10.82;;;;;;;16.39;75.13;100696.81;5014116;28;20026;-73
2021/09/21 05:08:18;;;;;;;13.18;9.30;;;;;;;16.79;72.90;100738.31;5013933;28;20026;-73
2021/09/21 05:10:43;;;;;;;16.58;9.40;;;;;;;16.92;71.94;100739.38;5014176;28;20044;-73
2021/09/21 05:13:09;;;;;;;13.23;9.02;;;;;;;16.99;70.99;100730.81;5013949;28;20029;-73
2021/09/21 05:15:35;;;;;;;13.73;8.48;;;;;;;17.20;69.59;100753.72;5014299;28;20034;-72
2021/09/21 05:18:00;;;;;;;12.32;8.45;;;;;;;17.11;69.87;100728.38;5022401;28;20029;-73
2021/09/21 05:20:26;;;;;;;12.32;8.35;;;;;;;17.26;68.00;100743.38;5027499;28;20026;-73
2021/09/21 05:22:53;;;;;;;25.77;9.07;;;;;;;17.53;68.23;100754.16;5013610;28;20029;-78
2021/09/21 05:25:19;;;;;;;19.00;6.97;;;;;;;17.42;61.73;100743.56;5013396;28;20065;-73
2021/09/21 05:27:45;;;;;;;12.90;5.88;;;;;;;17.59;61.63;100776.00;5031172;28;20036;-74
2021/09/21 05:30:11;;;;;;;12.35;6.13;;;;;;;17.53;61.81;100762.84;5031721;28;20045;-76
2021/09/21 05:32:37;;;;;;;8.38;5.43;;;;;;;17.47;60.34;100770.63;5030239;28;20144;-73
2021/09/21 05:35:03;;;;;;;8.02;5.82;;;;;;;17.43;60.69;100771.44;5033062;28;20072;-74
2021/09/21 05:37:30;;;;;;;8.38;5.05;;;;;;;17.30;60.14;100739.06;5031140;28;20095;-73
2021/09/21 05:39:55;;;;;;;10.00;5.55;;;;;;;17.53;60.16;100781.13;5033169;28;20065;-74
2021/09/21 05:42:21;;;;;;;12.63;5.85;;;;;;;17.53;60.32;100783.72;5033375;28;20463;-76
2021/09/21 05:44:46;;;;;;;8.93;5.15;;;;;;;17.25;62.01;100772.94;5033331;28;20029;-72
2021/09/21 05:47:12;;;;;;;9.52;5.45;;;;;;;17.39;61.15;100796.59;5032886;28;20040;-73
2021/09/21 05:49:39;;;;;;;6.85;5.10;;;;;;;17.45;60.44;100794.06;5033034;28;20037;-73
2021/09/21 05:52:05;;;;;;;9.23;5.70;;;;;;;17.22;61.95;100799.00;5032768;28;20072;-73
2021/09/21 05:54:31;;;;;;;8.18;5.07;;;;;;;17.28;60.32;100814.75;5032849;28;20026;-73
2021/09/21 05:56:56;;;;;;;7.78;4.93;;;;;;;17.32;61.10;100810.44;5032771;28;20401;-73
2021/09/21 05:59:22;;;;;;;6.28;4.70;;;;;;;17.39;61.33;100819.22;5032798;28;20496;-72
2021/09/21 06:01:47;;;;;;;6.30;4.70;;;;;;;17.33;60.11;100824.34;5032858;28;20034;-75
2021/09/21 06:04:13;;;;;;;6.38;4.38;;;;;;;17.25;60.13;100819.03;5032252;28;20018;-73
2021/09/21 06:06:39;;;;;;;8.70;4.53;;;;;;;17.24;59.28;100831.19;5032674;28;20032;-76
2021/09/21 06:09:04;;;;;;;5.55;4.25;;;;;;;17.30;59.37;100825.19;5032663;28;20021;-73
2021/09/21 06:11:33;;;;;;;10.00;3.72;;;;;;;17.41;58.40;100812.31;5032643;28;20404;-72
2021/09/21 06:14:01;;;;;;;6.72;3.70;;;;;;;17.42;57.51;100806.22;5032510;28;20041;-74
2021/09/21 06:16:26;;;;;;;5.47;3.75;;;;;;;17.39;55.21;100807.03;5032555;28;20176;-72
2021/09/21 06:18:52;;;;;;;7.95;3.55;;;;;;;17.46;55.46;100818.47;5032312;28;20523;-73
2021/09/21 06:21:17;;;;;;;7.63;3.70;;;;;;;17.23;54.37;100768.53;5031919;28;20423;-73
2021/09/21 06:23:43;;;;;;;8.07;3.90;;;;;;;17.52;53.91;100815.03;5032259;28;20068;-73
2021/09/21 06:26:08;;;;;;;6.00;3.45;;;;;;;17.57;53.82;100824.72;5032840;28;20025;-76
2021/09/21 06:28:34;;;;;;;8.38;3.70;;;;;;;17.24;54.14;100783.34;5032358;28;20122;-73
2021/09/21 06:31:00;;;;;;;4.93;3.63;;;;;;;17.69;53.18;100823.97;5032038;28;20471;-72
2021/09/21 06:33:25;;;;;;;5.95;3.42;;;;;;;17.76;54.70;100817.13;5032111;28;20555;-73
2021/09/21 06:35:51;;;;;;;5.18;3.38;;;;;;;17.90;54.15;100819.91;5031846;28;20104;-73
2021/09/21 06:38:17;;;;;;;7.85;3.90;;;;;;;17.94;54.92;100819.13;5032111;28;20151;-80
2021/09/21 06:40:45;;;;;;;5.78;3.67;;;;;;;17.96;52.72;100817.41;5031998;28;20025;-73
2021/09/21 06:43:11;;;;;;;7.80;3.88;;;;;;;18.00;53.05;100829.63;5032274;28;20021;-77
2021/09/21 06:45:37;;;;;;;7.55;4.25;;;;;;;18.00;53.11;100820.94;5031855;28;20382;-73
2021/09/21 06:48:02;;;;;;;4.68;3.50;;;;;;;18.28;52.26;100848.28;5031782;28;20026;-73
2021/09/21 06:50:28;;;;;;;6.28;3.70;;;;;;;18.53;52.80;100854.63;5047352;28;20030;-73
2021/09/21 06:52:53;;;;;;;5.88;3.80;;;;;;;18.62;52.01;100853.84;5031656;28;20103;-74
2021/09/21 06:55:19;;;;;;;5.00;3.70;;;;;;;18.39;51.73;100802.22;5031843;28;20021;-73
2021/09/21 06:57:52;;;;;;;6.30;3.92;;;;;;;18.56;52.21;100833.72;5031770;28;20034;-74
2021/09/21 07:00:20;;;;;;;6.35;3.60;;;;;;;18.72;51.29;100854.81;5031898;28;20107;-73
2021/09/21 07:02:51;;;;;;;6.35;3.60;;;;;;;18.81;51.19;100865.34;5046853;28;20029;-73
2021/09/21 07:05:17;;;;;;;6.25;3.65;;;;;;;18.74;51.13;100856.59;5031406;28;20480;-73
2021/09/21 07:07:47;;;;;;;5.28;4.05;;;;;;;18.80;50.62;100855.75;5031563;28;20022;-73
2021/09/21 07:10:14;;;;;;;6.10;3.90;;;;;;;18.87;51.14;100865.41;5031199;28;20476;-73
2021/09/21 07:12:40;;;;;;;4.88;3.70;;;;;;;18.98;49.41;100862.03;5031215;28;20159;-73
2021/09/21 07:15:07;;;;;;;4.88;3.80;;;;;;;19.16;49.42;100871.81;5030492;28;20541;-76
2021/09/21 07:17:33;;;;;;;5.55;3.53;;;;;;;19.30;48.84;100879.75;5031331;28;20017;-73
2021/09/21 07:19:58;;;;;;;4.50;3.22;;;;;;;19.41;48.84;100875.47;5031752;28;20502;-73
2021/09/21 07:22:24;;;;;;;5.10;3.45;;;;;;;19.64;48.96;100877.34;5031163;28;20404;-72
2021/09/21 07:24:50;;;;;;;6.63;3.90;;;;;;;19.73;47.81;100883.53;5079114;28;20041;-72
2021/09/21 07:27:16;;;;;;;6.07;3.80;;;;;;;19.87;46.75;100873.16;5030845;28;20037;-75
2021/09/21 07:29:42;;;;;;;4.80;3.40;;;;;;;20.03;47.53;100873.25;5030333;28;20033;-73
2021/09/21 07:32:08;;;;;;;6.10;3.88;;;;;;;20.06;46.76;100835.69;5031153;28;20484;-76
2021/09/21 07:34:34;;;;;;;8.00;3.88;;;;;;;20.40;47.01;100872.50;5031378;28;20036;-72
2021/09/21 07:36:59;;;;;;;8.18;4.05;;;;;;;20.28;45.86;100852.38;5031266;28;20483;-74
2021/09/21 07:39:25;;;;;;;6.60;4.07;;;;;;;20.49;46.60;100865.53;5030981;28;20496;-74
2021/09/21 07:41:51;;;;;;;5.65;4.05;;;;;;;20.56;46.96;100876.03;5030823;28;20416;-74
2021/09/21 07:44:17;;;;;;;6.22;4.22;;;;;;;20.28;46.66;100863.72;5029877;28;20073;-76
2021/09/21 07:46:42;;;;;;;9.10;4.38;;;;;;;20.08;46.77;100883.75;5031375;28;20083;-73
2021/09/21 07:49:28;;;;;;;6.30;4.10;;;;;;;20.12;46.23;100878.50;5068710;28;20072;-72
2021/09/21 07:51:53;;;;;;;7.18;4.22;;;;;;;20.20;45.82;100874.19;5068738;28;20122;-72
2021/09/21 07:54:19;;;;;;;7.28;4.25;;;;;;;20.06;46.40;100890.72;5066333;28;20039;-73
2021/09/21 07:56:44;;;;;;;6.03;4.18;;;;;;;20.26;46.50;100882.94;5066584;28;20549;-75
2021/09/21 07:59:10;;;;;;;5.03;3.97;;;;;;;20.06;45.75;100825.19;5067871;28;20119;-74
2021/09/21 08:01:40;;;;;;;5.07;4.00;;;;;;;20.47;45.78;100882.13;5068300;28;20039;-73
2021/09/21 08:04:23;;;;;;;5.80;3.95;;;;;;;20.75;44.77;100888.34;5067368;28;20082;-76
2021/09/21 08:06:49;;;;;;;7.32;4.05;;;;;;;20.84;47.14;100875.22;5068095;28;20032;-72
2021/09/21 08:09:16;;;;;;;6.43;4.28;;;;;;;21.06;47.14;100892.75;5068047;28;20047;-72
2021/09/21 08:11:41;;;;;;;8.48;4.35;;;;;;;20.99;45.39;100884.00;5068035;28;20204;-71
2021/09/21 08:14:07;;;;;;;5.25;3.90;;;;;;;21.26;46.27;100898.00;5067910;28;20128;-75
2021/09/21 08:16:33;;;;;;;8.88;4.60;;;;;;;21.41;43.57;100898.00;5068095;28;20061;-72
2021/09/21 08:19:00;;;;;;;12.57;5.13;;;;;;;21.48;42.59;100901.47;5067945;28;20036;-72
2021/09/21 08:21:26;;;;;;;7.30;4.32;;;;;;;21.56;42.93;100905.00;5047253;28;20525;-73
2021/09/21 08:23:53;;;;;;;10.63;3.65;;;;;;;21.60;42.69;100883.09;5048336;28;20616;-72
2021/09/21 08:26:18;;;;;;;6.95;3.67;;;;;;;21.78;41.95;100905.84;5049608;28;20037;-72
2021/09/21 08:28:44;;;;;;;5.28;3.33;;;;;;;21.79;41.48;100904.97;5052294;28;20499;-75
2021/09/21 08:31:09;;;;;;;5.25;3.72;;;;;;;21.84;42.34;100899.69;5051219;28;20047;-73
2021/09/21 08:33:35;;;;;;;8.38;3.70;;;;;;;21.88;41.04;100905.81;5051410;28;20036;-73
2021/09/21 08:36:00;;;;;;;7.03;4.00;;;;;;;21.76;43.55;100915.47;5038622;28;20133;-72
2021/09/21 08:38:26;;;;;;;6.55;4.00;;;;;;;21.69;42.32;100890.09;5034471;28;20085;-73
2021/09/21 08:40:52;;;;;;;6.57;3.70;;;;;;;21.88;41.86;100909.34;5034410;28;20494;-72
2021/09/21 08:43:17;;;;;;;4.43;3.60;;;;;;;22.02;42.19;100919.81;5034427;28;20052;-73
2021/09/21 08:45:43;;;;;;;4.82;3.88;;;;;;;22.11;43.13;100921.53;5034480;28;20030;-72
2021/09/21 08:48:08;;;;;;;6.10;3.92;;;;;;;21.99;42.94;100909.28;5034442;28;20068;-72
2021/09/21 08:50:34;;;;;;;4.40;3.45;;;;;;;21.90;43.92;100891.78;5033110;28;20037;-72
2021/09/21 08:52:59;;;;;;;3.75;3.30;;;;;;;21.94;42.44;100911.06;5034157;28;20030;-72
2021/09/21 08:55:25;;;;;;;4.43;3.30;;;;;;;21.67;41.71;100873.47;5034024;28;20095;-75
2021/09/21 08:57:51;;;;;;;5.00;3.60;;;;;;;21.96;41.50;100888.28;5034787;28;20077;-73
2021/09/21 09:00:23;;;;;;;6.65;3.65;;;;;;;22.05;41.99;100882.13;5034251;28;20137;-72
2021/09/21 09:02:49;;;;;;;4.53;3.58;;;;;;;22.31;42.11;100903.03;5034107;28;20034;-73
2021/09/21 09:05:15;;;;;;;6.25;3.33;;;;;;;22.27;41.00;100877.63;5033963;28;20108;-73
2021/09/21 09:07:56;;;;;;;9.15;3.80;;;;;;;22.61;42.65;100916.94;5033955;28;20404;-73
2021/09/21 09:10:23;;;;;;;5.45;3.22;;;;;;;22.65;39.82;100902.88;5034159;28;20042;-73
2021/09/21 09:12:49;;;;;;;5.00;3.33;;;;;;;22.78;38.63;100928.25;5034289;28;20033;-74
2021/09/21 09:15:21;;;;;;;4.65;3.45;;;;;;;22.57;37.98;100894.16;5034016;28;20113;-73
2021/09/21 09:17:56;;;;;;;5.45;3.47;;;;;;;22.85;38.18;100928.19;5034090;28;20400;-73
2021/09/21 09:20:33;;;;;;;6.70;3.53;;;;;;;22.88;41.17;100920.25;5033436;28;20035;-74
2021/09/21 09:22:59;;;;;;;6.10;3.20;;;;;;;22.90;38.43;100922.03;5033578;28;20032;-74
2021/09/21 09:25:25;;;;;;;12.57;3.63;;;;;;;23.09;38.88;100932.41;5033873;28;20026;-73
2021/09/21 09:27:51;;;;;;;5.15;3.67;;;;;;;22.80;39.39;100933.47;5033451;28;20028;-73
2021/09/21 09:30:24;;;;;;;5.30;3.70;;;;;;;22.80;40.13;100933.47;5033374;28;20026;-73
2021/09/21 09:32:52;;;;;;;6.43;3.95;;;;;;;22.76;38.66;100932.63;5033438;28;20147;-73
2021/09/21 09:35:30;;;;;;;4.57;3.53;;;;;;;22.98;38.04;100927.25;5033491;28;20021;-74
2021/09/21 09:37:58;;;;;;;5.30;3.58;;;;;;;23.07;37.94;100923.66;5032727;28;20021;-73
2021/09/21 09:40:24;;;;;;;7.80;4.13;;;;;;;23.15;37.49;100924.47;5033274;28;20407;-74
2021/09/21 09:42:50;;;;;;;7.05;3.25;;;;;;;23.42;37.15;100933.91;5033421;28;20032;-72
2021/09/21 09:45:29;;;;;;;15.10;4.25;;;;;;;23.54;37.50;100929.41;5033283;28;20033;-73
2021/09/21 09:47:55;;;;;;;7.15;4.25;;;;;;;23.58;40.16;100941.72;5033089;28;20492;-72
2021/09/21 09:50:31;;;;;;;6.13;3.33;;;;;;;23.69;36.99;100937.19;5033185;28;20108;-76
2021/09/21 09:53:14;;;;;;;10.07;3.38;;;;;;;23.88;36.13;100931.75;5033172;28;20025;-73
2021/09/21 09:55:44;;;;;;;8.35;4.18;;;;;;;24.02;36.67;100932.47;5032934;28;20480;-73
2021/09/21 09:58:11;;;;;;;6.68;3.67;;;;;;;23.81;36.42;100919.50;5033187;28;20084;-73
2021/09/21 10:00:37;;;;;;;8.20;3.35;;;;;;;24.00;35.78;100925.47;5032802;28;20089;-74
2021/09/21 10:03:04;;;;;;;7.68;3.85;;;;;;;24.20;36.88;100927.88;5032859;28;20108;-73
2021/09/21 10:05:32;;;;;;;7.15;3.60;;;;;;;24.30;35.23;100929.53;5032859;28;20037;-74
2021/09/21 10:07:58;;;;;;;8.55;3.85;;;;;;;23.90;36.36;100908.84;5032941;28;20029;-74
2021/09/21 10:10:25;;;;;;;10.02;4.20;;;;;;;24.22;36.45;100908.53;5048109;28;20508;-75
2021/09/21 10:12:51;;;;;;;8.20;3.80;;;;;;;24.26;35.07;100893.50;5032588;28;20032;-75
2021/09/21 10:15:17;;;;;;;8.48;3.88;;;;;;;23.84;35.79;100896.63;5032765;28;20025;-74
2021/09/21 10:17:54;;;;;;;7.22;3.97;;;;;;;23.30;36.07;100881.34;5032648;28;20515;-74
2021/09/21 10:20:30;;;;;;;6.15;3.30;;;;;;;23.36;36.70;100898.88;5030679;28;20033;-73
2021/09/21 10:22:56;;;;;;;7.90;3.80;;;;;;;23.65;37.59;100909.13;5032334;28;20688;-73
2021/09/21 10:25:33;;;;;;;12.35;3.90;;;;;;;23.88;36.16;100894.81;5032181;28;20534;-73
2021/09/21 10:28:00;;;;;;;8.30;3.92;;;;;;;24.30;35.66;100903.13;5034094;28;20026;-72
2021/09/21 10:30:31;;;;;;;9.82;4.05;;;;;;;24.33;35.78;100897.81;5032464;28;20022;-73
2021/09/21 10:32:58;;;;;;;51.35;25.98;;;;;;;24.11;36.70;100889.28;5031319;28;20412;-75
2021/09/21 10:35:31;;;;;;;9.88;4.88;;;;;;;23.92;35.19;100886.00;5031857;28;20029;-73
2021/09/21 10:38:07;;;;;;;8.30;3.55;;;;;;;23.80;36.53;100872.94;5032005;28;20026;-74
2021/09/21 10:40:41;;;;;;;6.00;3.65;;;;;;;24.08;37.19;100875.28;5031961;28;20033;-74
2021/09/21 10:43:22;;;;;;;7.75;3.92;;;;;;;24.17;34.46;100876.03;5035336;28;20077;-76
2021/09/21 10:46:04;;;;;;;8.27;4.20;;;;;;;24.15;34.11;100863.75;5029400;28;20408;-74
2021/09/21 10:48:34;;;;;;;11.35;5.63;;;;;;;24.25;35.65;100836.38;5031694;28;20423;-74
2021/09/21 10:50:59;;;;;;;9.48;4.10;;;;;;;24.15;35.47;100855.84;5030603;28;20025;-75
2021/09/21 10:53:26;;;;;;;13.15;4.60;;;;;;;24.59;34.70;100877.25;5062686;28;20106;-74
2021/09/21 10:56:18;;;;;;;7.10;3.47;;;;;;;24.61;35.28;100881.59;5031808;28;20040;-72
2021/09/21 10:58:55;;;;;;;7.53;3.30;;;;;;;24.52;36.99;100874.69;5029337;28;20041;-72
2021/09/21 11:01:21;;;;;;;10.52;5.38;;;;;;;24.58;36.45;100864.94;5024448;28;20431;-74
2021/09/21 11:03:47;;;;;;;5.25;3.30;;;;;;;24.85;34.50;100879.50;5024966;28;20119;-73
2021/09/21 11:06:15;;;;;;;5.90;3.83;;;;;;;24.68;35.08;100861.28;5027194;28;20060;-73
2021/09/21 11:08:41;;;;;;;6.90;3.40;;;;;;;24.75;34.11;100868.22;5032760;28;20121;-76
2021/09/21 11:11:08;;;;;;;9.27;5.18;;;;;;;24.89;35.09;100832.78;5009577;28;20107;-75
2021/09/21 11:13:43;;;;;;;5.18;3.05;;;;;;;25.23;32.56;100861.25;5024604;28;20032;-74
2021/09/21 11:16:13;;;;;;;5.13;3.20;;;;;;;24.36;34.96;100855.56;5026536;28;20231;-75
2021/09/21 11:18:43;;;;;;;15.93;3.70;;;;;;;24.81;35.10;100830.25;5027643;28;20034;-69
2021/09/21 11:21:11;;;;;;;5.82;3.53;;;;;;;25.10;32.68;100839.50;5026372;28;20087;-74
2021/09/21 11:23:41;;;;;;;9.80;3.28;;;;;;;25.32;32.22;100856.69;5025957;28;20029;-73
2021/09/21 11:26:09;;;;;;;6.95;3.10;;;;;;;25.41;31.67;100855.69;5025729;28;20455;-73
2021/09/21 11:28:40;;;;;;;5.32;2.70;;;;;;;25.54;33.21;100832.53;5025717;28;20045;-74
2021/09/21 11:31:06;;;;;;;6.95;3.22;;;;;;;25.85;33.53;100837.19;5026676;28;20037;-73